sensor_id;sensor_type;location;lat;lon;timestamp;temperature;humidity
13835;DHT22;6988;52.614;13.500;2023-07-30T00:01:34;17.80;99.90
13835;DHT22;6988;52.614;13.500;2023-07-30T00:06:26;17.80;99.90
13835;DHT22;6988;52.614;13.500;2023-07-30T00:11:18;17.70;99.90
13835;DHT22;6988;52.614;13.500;2023-07-30T00:16:10;17.70;99.90
13835;DHT22;6988;52.614;13.500;2023-07-30T00:21:03;17.60;99.90
13835;DHT22;6988;52.614;13.500;2023-07-30T00:25:55;17.60;99.90
13835;DHT22;6988;52.614;13.500;2023-07-30T00:30:47;17.50;99.90
13835;DHT22;6988;52.614;13.500;2023-07-30T00:35:38;17.50;99.90
13835;DHT22;6988;52.614;13.500;2023-07-30T00:40:32;17.50;99.90
13835;DHT22;6988;52.614;13.500;2023-07-30T00:45:25;17.40;99.90
13835;DHT22;6988;52.614;13.500;2023-07-30T00:50:19;17.40;99.90
13835;DHT22;6988;52.614;13.500;2023-07-30T00:55:11;17.30;99.90
13835;DHT22;6988;52.614;13.500;2023-07-30T01:00:06;17.30;99.90
13835;DHT22;6988;52.614;13.500;2023-07-30T01:05:01;17.20;99.90
13835;DHT22;6988;52.614;13.500;2023-07-30T01:09:54;17.20;99.90
13835;DHT22;6988;52.614;13.500;2023-07-30T01:14:46;17.20;99.90
13835;DHT22;6988;52.614;13.500;2023-07-30T01:19:40;17.20;99.90
13835;DHT22;6988;52.614;13.500;2023-07-30T01:24:34;17.20;99.90
13835;DHT22;6988;52.614;13.500;2023-07-30T01:29:29;17.10;99.90
13835;DHT22;6988;52.614;13.500;2023-07-30T01:34:30;17.10;99.90
13835;DHT22;6988;52.614;13.500;2023-07-30T01:39:26;17.00;99.90
13835;DHT22;6988;52.614;13.500;2023-07-30T01:44:20;17.00;99.90
13835;DHT22;6988;52.614;13.500;2023-07-30T01:49:12;16.90;99.90
13835;DHT22;6988;52.614;13.500;2023-07-30T01:54:05;16.90;99.90
13835;DHT22;6988;52.614;13.500;2023-07-30T01:58:56;16.90;99.90
13835;DHT22;6988;52.614;13.500;2023-07-30T02:03:50;16.80;99.90
13835;DHT22;6988;52.614;13.500;2023-07-30T02:08:42;16.80;99.90
13835;DHT22;6988;52.614;13.500;2023-07-30T02:13:34;16.70;99.90
13835;DHT22;6988;52.614;13.500;2023-07-30T02:18:26;16.60;99.90
13835;DHT22;6988;52.614;13.500;2023-07-30T02:23:19;16.50;99.90
13835;DHT22;6988;52.614;13.500;2023-07-30T02:28:11;16.50;99.90
13835;DHT22;6988;52.614;13.500;2023-07-30T02:33:03;16.40;99.90
13835;DHT22;6988;52.614;13.500;2023-07-30T02:37:55;16.30;99.90
13835;DHT22;6988;52.614;13.500;2023-07-30T02:42:48;16.30;99.90
13835;DHT22;6988;52.614;13.500;2023-07-30T02:47:40;16.30;99.90
13835;DHT22;6988;52.614;13.500;2023-07-30T02:52:31;16.20;99.90
13835;DHT22;6988;52.614;13.500;2023-07-30T02:57:23;16.20;99.90
13835;DHT22;6988;52.614;13.500;2023-07-30T03:02:17;16.10;99.90
13835;DHT22;6988;52.614;13.500;2023-07-30T03:07:09;16.20;99.90
13835;DHT22;6988;52.614;13.500;2023-07-30T03:12:01;16.20;99.90
13835;DHT22;6988;52.614;13.500;2023-07-30T03:16:54;16.20;99.90
13835;DHT22;6988;52.614;13.500;2023-07-30T03:21:47;16.10;99.90
13835;DHT22;6988;52.614;13.500;2023-07-30T03:26:39;16.10;99.90
13835;DHT22;6988;52.614;13.500;2023-07-30T03:31:31;16.10;99.90
13835;DHT22;6988;52.614;13.500;2023-07-30T03:36:25;16.10;99.90
13835;DHT22;6988;52.614;13.500;2023-07-30T03:41:18;16.10;99.90
13835;DHT22;6988;52.614;13.500;2023-07-30T03:46:10;16.10;99.90
13835;DHT22;6988;52.614;13.500;2023-07-30T03:51:02;16.00;99.90
13835;DHT22;6988;52.614;13.500;2023-07-30T03:55:54;16.00;99.90
13835;DHT22;6988;52.614;13.500;2023-07-30T04:00:47;16.10;99.90
13835;DHT22;6988;52.614;13.500;2023-07-30T04:05:39;16.10;99.90
13835;DHT22;6988;52.614;13.500;2023-07-30T04:10:31;16.10;99.90
13835;DHT22;6988;52.614;13.500;2023-07-30T04:15:23;16.10;99.90
13835;DHT22;6988;52.614;13.500;2023-07-30T04:20:16;16.10;99.90
13835;DHT22;6988;52.614;13.500;2023-07-30T04:25:09;16.10;99.90
13835;DHT22;6988;52.614;13.500;2023-07-30T04:30:02;16.30;99.90
13835;DHT22;6988;52.614;13.500;2023-07-30T04:34:54;16.40;99.90
13835;DHT22;6988;52.614;13.500;2023-07-30T04:39:48;16.40;99.90
13835;DHT22;6988;52.614;13.500;2023-07-30T04:44:40;16.50;99.90
13835;DHT22;6988;52.614;13.500;2023-07-30T04:49:37;16.50;99.90
13835;DHT22;6988;52.614;13.500;2023-07-30T04:54:30;16.50;99.90
13835;DHT22;6988;52.614;13.500;2023-07-30T04:59:24;16.60;99.90
13835;DHT22;6988;52.614;13.500;2023-07-30T05:04:16;16.70;99.90
13835;DHT22;6988;52.614;13.500;2023-07-30T05:09:08;16.70;99.90
13835;DHT22;6988;52.614;13.500;2023-07-30T05:14:02;16.80;99.90
13835;DHT22;6988;52.614;13.500;2023-07-30T05:18:55;16.80;99.90
13835;DHT22;6988;52.614;13.500;2023-07-30T05:23:47;16.90;99.90
13835;DHT22;6988;52.614;13.500;2023-07-30T05:28:39;17.00;99.90
13835;DHT22;6988;52.614;13.500;2023-07-30T05:33:31;17.10;99.90
13835;DHT22;6988;52.614;13.500;2023-07-30T05:38:24;17.30;99.90
13835;DHT22;6988;52.614;13.500;2023-07-30T05:43:16;17.50;99.90
13835;DHT22;6988;52.614;13.500;2023-07-30T05:48:07;17.70;99.90
13835;DHT22;6988;52.614;13.500;2023-07-30T05:53:00;17.90;99.90
13835;DHT22;6988;52.614;13.500;2023-07-30T05:57:53;17.90;99.90
13835;DHT22;6988;52.614;13.500;2023-07-30T06:02:46;18.10;99.90
13835;DHT22;6988;52.614;13.500;2023-07-30T06:07:38;18.20;99.90
13835;DHT22;6988;52.614;13.500;2023-07-30T06:12:30;18.20;99.90
13835;DHT22;6988;52.614;13.500;2023-07-30T06:17:23;18.30;99.90
13835;DHT22;6988;52.614;13.500;2023-07-30T06:22:15;18.40;99.90
13835;DHT22;6988;52.614;13.500;2023-07-30T06:27:07;18.50;99.90
13835;DHT22;6988;52.614;13.500;2023-07-30T06:32:00;18.60;99.90
13835;DHT22;6988;52.614;13.500;2023-07-30T06:36:54;18.80;99.90
13835;DHT22;6988;52.614;13.500;2023-07-30T06:41:46;18.90;99.90
13835;DHT22;6988;52.614;13.500;2023-07-30T06:46:38;19.00;99.90
13835;DHT22;6988;52.614;13.500;2023-07-30T06:51:30;19.00;99.90
13835;DHT22;6988;52.614;13.500;2023-07-30T06:56:23;19.10;99.90
13835;DHT22;6988;52.614;13.500;2023-07-30T07:01:16;19.20;99.90
13835;DHT22;6988;52.614;13.500;2023-07-30T07:06:07;19.20;99.90
13835;DHT22;6988;52.614;13.500;2023-07-30T07:10:59;19.30;99.90
13835;DHT22;6988;52.614;13.500;2023-07-30T07:15:53;19.40;99.90
13835;DHT22;6988;52.614;13.500;2023-07-30T07:20:47;19.70;99.90
13835;DHT22;6988;52.614;13.500;2023-07-30T07:25:39;20.00;99.90
13835;DHT22;6988;52.614;13.500;2023-07-30T07:30:31;20.30;99.90
13835;DHT22;6988;52.614;13.500;2023-07-30T07:35:27;20.50;99.90
13835;DHT22;6988;52.614;13.500;2023-07-30T07:40:19;20.70;99.90
13835;DHT22;6988;52.614;13.500;2023-07-30T07:45:11;20.90;99.90
13835;DHT22;6988;52.614;13.500;2023-07-30T07:50:03;20.90;99.90
13835;DHT22;6988;52.614;13.500;2023-07-30T07:54:56;20.80;99.90
13835;DHT22;6988;52.614;13.500;2023-07-30T07:59:48;20.80;99.90
13835;DHT22;6988;52.614;13.500;2023-07-30T08:04:40;20.90;99.90
13835;DHT22;6988;52.614;13.500;2023-07-30T08:09:32;21.60;99.90
13835;DHT22;6988;52.614;13.500;2023-07-30T08:14:26;22.00;99.90
13835;DHT22;6988;52.614;13.500;2023-07-30T08:19:17;22.10;99.90
13835;DHT22;6988;52.614;13.500;2023-07-30T08:24:09;22.00;99.90
13835;DHT22;6988;52.614;13.500;2023-07-30T08:29:01;22.10;99.90
13835;DHT22;6988;52.614;13.500;2023-07-30T08:33:55;22.00;99.90
13835;DHT22;6988;52.614;13.500;2023-07-30T08:38:46;21.90;99.90
13835;DHT22;6988;52.614;13.500;2023-07-30T08:43:38;22.40;99.90
13835;DHT22;6988;52.614;13.500;2023-07-30T08:48:30;23.00;99.90
13835;DHT22;6988;52.614;13.500;2023-07-30T08:53:24;23.00;99.90
13835;DHT22;6988;52.614;13.500;2023-07-30T08:58:17;22.70;99.90
13835;DHT22;6988;52.614;13.500;2023-07-30T09:03:10;22.80;99.90
13835;DHT22;6988;52.614;13.500;2023-07-30T09:08:08;22.90;99.90
13835;DHT22;6988;52.614;13.500;2023-07-30T09:13:03;23.40;99.90
13835;DHT22;6988;52.614;13.500;2023-07-30T09:17:55;23.90;99.90
13835;DHT22;6988;52.614;13.500;2023-07-30T09:22:47;23.70;99.90
13835;DHT22;6988;52.614;13.500;2023-07-30T09:27:40;23.60;99.90
13835;DHT22;6988;52.614;13.500;2023-07-30T09:32:34;23.40;99.90
13835;DHT22;6988;52.614;13.500;2023-07-30T09:37:26;23.50;99.90
13835;DHT22;6988;52.614;13.500;2023-07-30T09:42:18;23.80;99.90
13835;DHT22;6988;52.614;13.500;2023-07-30T09:47:11;24.40;99.90
13835;DHT22;6988;52.614;13.500;2023-07-30T09:52:05;25.10;99.90
13835;DHT22;6988;52.614;13.500;2023-07-30T09:56:57;25.50;99.90
13835;DHT22;6988;52.614;13.500;2023-07-30T10:01:50;26.00;99.90
13835;DHT22;6988;52.614;13.500;2023-07-30T10:06:49;26.10;99.90
13835;DHT22;6988;52.614;13.500;2023-07-30T10:11:48;25.60;99.90
13835;DHT22;6988;52.614;13.500;2023-07-30T10:16:50;25.30;99.90
13835;DHT22;6988;52.614;13.500;2023-07-30T10:21:43;25.00;99.90
13835;DHT22;6988;52.614;13.500;2023-07-30T10:26:35;24.50;99.90
13835;DHT22;6988;52.614;13.500;2023-07-30T10:31:38;24.40;99.90
13835;DHT22;6988;52.614;13.500;2023-07-30T10:36:31;25.20;99.90
13835;DHT22;6988;52.614;13.500;2023-07-30T10:41:24;25.80;99.90
13835;DHT22;6988;52.614;13.500;2023-07-30T10:46:17;25.70;99.90
13835;DHT22;6988;52.614;13.500;2023-07-30T10:51:12;25.40;99.90
13835;DHT22;6988;52.614;13.500;2023-07-30T10:56:07;25.10;99.90
13835;DHT22;6988;52.614;13.500;2023-07-30T11:01:02;24.90;99.90
13835;DHT22;6988;52.614;13.500;2023-07-30T11:05:55;24.60;99.90
13835;DHT22;6988;52.614;13.500;2023-07-30T11:10:48;24.30;99.90
13835;DHT22;6988;52.614;13.500;2023-07-30T11:15:42;24.10;99.90
13835;DHT22;6988;52.614;13.500;2023-07-30T11:20:34;23.70;99.90
13835;DHT22;6988;52.614;13.500;2023-07-30T11:25:27;23.70;99.90
13835;DHT22;6988;52.614;13.500;2023-07-30T11:30:20;23.80;99.90
13835;DHT22;6988;52.614;13.500;2023-07-30T11:35:14;24.20;99.90
13835;DHT22;6988;52.614;13.500;2023-07-30T11:40:08;25.10;99.90
13835;DHT22;6988;52.614;13.500;2023-07-30T11:45:21;25.70;99.90
13835;DHT22;6988;52.614;13.500;2023-07-30T11:50:14;26.00;99.90
13835;DHT22;6988;52.614;13.500;2023-07-30T11:55:09;26.60;99.90
13835;DHT22;6988;52.614;13.500;2023-07-30T12:00:02;26.60;99.90
13835;DHT22;6988;52.614;13.500;2023-07-30T12:05:05;26.80;99.90
13835;DHT22;6988;52.614;13.500;2023-07-30T12:10:06;26.80;99.90
13835;DHT22;6988;52.614;13.500;2023-07-30T12:15:00;26.50;99.90
13835;DHT22;6988;52.614;13.500;2023-07-30T12:19:52;26.60;99.90
13835;DHT22;6988;52.614;13.500;2023-07-30T12:24:47;26.50;99.90
13835;DHT22;6988;52.614;13.500;2023-07-30T12:29:39;26.40;99.90
13835;DHT22;6988;52.614;13.500;2023-07-30T12:34:31;26.20;99.90
13835;DHT22;6988;52.614;13.500;2023-07-30T12:39:22;26.00;99.90
13835;DHT22;6988;52.614;13.500;2023-07-30T12:44:16;26.20;99.90
13835;DHT22;6988;52.614;13.500;2023-07-30T12:49:08;26.10;99.90
13835;DHT22;6988;52.614;13.500;2023-07-30T12:54:00;25.90;99.90
13835;DHT22;6988;52.614;13.500;2023-07-30T12:58:52;25.80;99.90
13835;DHT22;6988;52.614;13.500;2023-07-30T13:03:45;25.70;99.90
13835;DHT22;6988;52.614;13.500;2023-07-30T13:08:39;25.70;99.90
13835;DHT22;6988;52.614;13.500;2023-07-30T13:13:31;25.50;99.90
13835;DHT22;6988;52.614;13.500;2023-07-30T13:18:23;25.40;99.90
13835;DHT22;6988;52.614;13.500;2023-07-30T13:23:17;25.20;99.90
13835;DHT22;6988;52.614;13.500;2023-07-30T13:28:08;25.10;99.90
13835;DHT22;6988;52.614;13.500;2023-07-30T13:33:00;25.10;99.90
13835;DHT22;6988;52.614;13.500;2023-07-30T13:37:52;25.10;99.90
13835;DHT22;6988;52.614;13.500;2023-07-30T13:42:46;25.20;99.90
13835;DHT22;6988;52.614;13.500;2023-07-30T13:47:38;25.40;99.90
13835;DHT22;6988;52.614;13.500;2023-07-30T13:52:31;25.20;99.90
13835;DHT22;6988;52.614;13.500;2023-07-30T13:57:23;24.90;99.90
13835;DHT22;6988;52.614;13.500;2023-07-30T14:02:17;24.60;99.90
13835;DHT22;6988;52.614;13.500;2023-07-30T14:07:09;24.40;99.90
13835;DHT22;6988;52.614;13.500;2023-07-30T14:12:01;24.40;99.90
13835;DHT22;6988;52.614;13.500;2023-07-30T14:16:53;24.40;99.90
13835;DHT22;6988;52.614;13.500;2023-07-30T14:21:46;24.30;99.90
13835;DHT22;6988;52.614;13.500;2023-07-30T14:26:39;24.10;99.90
13835;DHT22;6988;52.614;13.500;2023-07-30T14:31:31;23.90;99.90
13835;DHT22;6988;52.614;13.500;2023-07-30T14:36:23;23.70;99.90
13835;DHT22;6988;52.614;13.500;2023-07-30T14:41:16;23.50;99.90
13835;DHT22;6988;52.614;13.500;2023-07-30T14:46:10;23.40;99.90
13835;DHT22;6988;52.614;13.500;2023-07-30T14:51:04;23.20;99.90
13835;DHT22;6988;52.614;13.500;2023-07-30T14:55:55;23.00;99.90
13835;DHT22;6988;52.614;13.500;2023-07-30T15:00:50;22.70;99.90
13835;DHT22;6988;52.614;13.500;2023-07-30T15:05:42;22.40;99.90
13835;DHT22;6988;52.614;13.500;2023-07-30T15:10:34;22.30;99.90
13835;DHT22;6988;52.614;13.500;2023-07-30T15:15:26;22.10;99.90
13835;DHT22;6988;52.614;13.500;2023-07-30T15:20:20;21.80;99.90
13835;DHT22;6988;52.614;13.500;2023-07-30T15:25:12;21.50;99.90
13835;DHT22;6988;52.614;13.500;2023-07-30T15:30:05;21.20;99.90
13835;DHT22;6988;52.614;13.500;2023-07-30T15:34:57;21.20;99.90
13835;DHT22;6988;52.614;13.500;2023-07-30T15:39:50;21.20;99.90
13835;DHT22;6988;52.614;13.500;2023-07-30T15:44:42;21.20;99.90
13835;DHT22;6988;52.614;13.500;2023-07-30T15:49:34;21.10;99.90
13835;DHT22;6988;52.614;13.500;2023-07-30T15:54:33;21.00;99.90
13835;DHT22;6988;52.614;13.500;2023-07-30T15:59:27;21.00;99.90
13835;DHT22;6988;52.614;13.500;2023-07-30T16:04:19;21.10;99.90
13835;DHT22;6988;52.614;13.500;2023-07-30T16:09:11;21.00;99.90
13835;DHT22;6988;52.614;13.500;2023-07-30T16:14:02;20.90;99.90
13835;DHT22;6988;52.614;13.500;2023-07-30T16:18:56;20.60;99.90
13835;DHT22;6988;52.614;13.500;2023-07-30T16:23:50;20.70;99.90
13835;DHT22;6988;52.614;13.500;2023-07-30T16:28:42;20.70;99.90
13835;DHT22;6988;52.614;13.500;2023-07-30T16:33:34;20.70;99.90
13835;DHT22;6988;52.614;13.500;2023-07-30T16:38:28;20.60;99.90
13835;DHT22;6988;52.614;13.500;2023-07-30T16:43:19;20.50;99.90
13835;DHT22;6988;52.614;13.500;2023-07-30T16:48:11;20.40;99.90
13835;DHT22;6988;52.614;13.500;2023-07-30T16:53:03;20.40;99.90
13835;DHT22;6988;52.614;13.500;2023-07-30T16:57:56;20.40;99.90
13835;DHT22;6988;52.614;13.500;2023-07-30T17:02:48;20.50;99.90
13835;DHT22;6988;52.614;13.500;2023-07-30T17:07:41;20.50;99.90
13835;DHT22;6988;52.614;13.500;2023-07-30T17:12:33;20.50;99.90
13835;DHT22;6988;52.614;13.500;2023-07-30T17:17:26;20.30;99.90
13835;DHT22;6988;52.614;13.500;2023-07-30T17:22:17;20.20;99.90
13835;DHT22;6988;52.614;13.500;2023-07-30T17:27:09;20.20;99.90
13835;DHT22;6988;52.614;13.500;2023-07-30T17:32:05;20.20;99.90
13835;DHT22;6988;52.614;13.500;2023-07-30T17:36:58;20.10;99.90
13835;DHT22;6988;52.614;13.500;2023-07-30T17:41:50;20.00;99.90
13835;DHT22;6988;52.614;13.500;2023-07-30T17:46:42;20.00;99.90
13835;DHT22;6988;52.614;13.500;2023-07-30T17:51:34;20.00;99.90
13835;DHT22;6988;52.614;13.500;2023-07-30T17:56:28;20.00;99.90
13835;DHT22;6988;52.614;13.500;2023-07-30T18:01:20;20.00;99.90
13835;DHT22;6988;52.614;13.500;2023-07-30T18:06:12;20.00;99.90
13835;DHT22;6988;52.614;13.500;2023-07-30T18:11:04;19.90;99.90
13835;DHT22;6988;52.614;13.500;2023-07-30T18:15:57;19.90;99.90
13835;DHT22;6988;52.614;13.500;2023-07-30T18:20:49;19.90;99.90
13835;DHT22;6988;52.614;13.500;2023-07-30T18:25:41;19.80;99.90
13835;DHT22;6988;52.614;13.500;2023-07-30T18:30:35;19.60;99.90
13835;DHT22;6988;52.614;13.500;2023-07-30T18:35:29;19.70;99.90
13835;DHT22;6988;52.614;13.500;2023-07-30T18:40:21;19.60;99.90
13835;DHT22;6988;52.614;13.500;2023-07-30T18:45:13;19.60;99.90
13835;DHT22;6988;52.614;13.500;2023-07-30T18:50:07;19.50;99.90
13835;DHT22;6988;52.614;13.500;2023-07-30T18:55:01;19.40;99.90
13835;DHT22;6988;52.614;13.500;2023-07-30T18:59:53;19.20;99.90
13835;DHT22;6988;52.614;13.500;2023-07-30T19:04:44;19.10;99.90
13835;DHT22;6988;52.614;13.500;2023-07-30T19:09:36;19.10;99.90
13835;DHT22;6988;52.614;13.500;2023-07-30T19:14:29;19.10;99.90
13835;DHT22;6988;52.614;13.500;2023-07-30T19:19:23;19.10;99.90
13835;DHT22;6988;52.614;13.500;2023-07-30T19:24:15;19.00;99.90
13835;DHT22;6988;52.614;13.500;2023-07-30T19:29:06;18.60;99.90
13835;DHT22;6988;52.614;13.500;2023-07-30T19:34:07;18.10;99.90
13835;DHT22;6988;52.614;13.500;2023-07-30T19:39:00;17.70;99.90
13835;DHT22;6988;52.614;13.500;2023-07-30T19:43:52;17.40;99.90
13835;DHT22;6988;52.614;13.500;2023-07-30T19:48:44;17.20;99.90
13835;DHT22;6988;52.614;13.500;2023-07-30T19:53:37;17.00;99.90
13835;DHT22;6988;52.614;13.500;2023-07-30T19:58:31;16.90;99.90
13835;DHT22;6988;52.614;13.500;2023-07-30T20:03:24;16.90;99.90
13835;DHT22;6988;52.614;13.500;2023-07-30T20:08:16;16.90;99.90
13835;DHT22;6988;52.614;13.500;2023-07-30T20:13:09;17.00;99.90
13835;DHT22;6988;52.614;13.500;2023-07-30T20:18:02;16.90;99.90
13835;DHT22;6988;52.614;13.500;2023-07-30T20:22:56;16.90;99.90
13835;DHT22;6988;52.614;13.500;2023-07-30T20:27:48;16.90;99.90
13835;DHT22;6988;52.614;13.500;2023-07-30T20:32:41;16.80;99.90
13835;DHT22;6988;52.614;13.500;2023-07-30T20:37:33;16.80;99.90
13835;DHT22;6988;52.614;13.500;2023-07-30T20:42:25;16.70;99.90
13835;DHT22;6988;52.614;13.500;2023-07-30T20:47:17;16.60;99.90
13835;DHT22;6988;52.614;13.500;2023-07-30T20:52:11;16.60;99.90
13835;DHT22;6988;52.614;13.500;2023-07-30T20:57:03;16.40;99.90
13835;DHT22;6988;52.614;13.500;2023-07-30T21:01:55;16.40;99.90
13835;DHT22;6988;52.614;13.500;2023-07-30T21:06:48;16.30;99.90
13835;DHT22;6988;52.614;13.500;2023-07-30T21:11:41;16.30;99.90
13835;DHT22;6988;52.614;13.500;2023-07-30T21:16:33;16.30;99.90
13835;DHT22;6988;52.614;13.500;2023-07-30T21:21:25;16.20;99.90
13835;DHT22;6988;52.614;13.500;2023-07-30T21:26:17;16.10;99.90
13835;DHT22;6988;52.614;13.500;2023-07-30T21:31:10;16.10;99.90
13835;DHT22;6988;52.614;13.500;2023-07-30T21:36:03;16.00;99.90
13835;DHT22;6988;52.614;13.500;2023-07-30T21:40:55;16.00;99.90
13835;DHT22;6988;52.614;13.500;2023-07-30T22:03:40;15.80;99.90
13835;DHT22;6988;52.614;13.500;2023-07-30T22:08:35;15.70;99.90
13835;DHT22;6988;52.614;13.500;2023-07-30T22:13:26;15.70;99.90
13835;DHT22;6988;52.614;13.500;2023-07-30T22:18:18;15.70;99.90
13835;DHT22;6988;52.614;13.500;2023-07-30T22:23:11;15.70;99.90
13835;DHT22;6988;52.614;13.500;2023-07-30T22:28:03;15.70;99.90
13835;DHT22;6988;52.614;13.500;2023-07-30T22:32:56;15.60;99.90
13835;DHT22;6988;52.614;13.500;2023-07-30T22:37:48;15.50;99.90
13835;DHT22;6988;52.614;13.500;2023-07-30T22:42:41;15.50;99.90
13835;DHT22;6988;52.614;13.500;2023-07-30T22:47:32;15.40;99.90
13835;DHT22;6988;52.614;13.500;2023-07-30T22:52:24;15.30;99.90
13835;DHT22;6988;52.614;13.500;2023-07-30T22:57:16;15.40;99.90
13835;DHT22;6988;52.614;13.500;2023-07-30T23:02:09;15.40;99.90
13835;DHT22;6988;52.614;13.500;2023-07-30T23:07:01;15.40;99.90
13835;DHT22;6988;52.614;13.500;2023-07-30T23:11:53;15.40;99.90
13835;DHT22;6988;52.614;13.500;2023-07-30T23:16:45;15.40;99.90
13835;DHT22;6988;52.614;13.500;2023-07-30T23:21:39;15.40;99.90
13835;DHT22;6988;52.614;13.500;2023-07-30T23:26:30;15.40;99.90
13835;DHT22;6988;52.614;13.500;2023-07-30T23:31:22;15.30;99.90
13835;DHT22;6988;52.614;13.500;2023-07-30T23:36:15;15.40;99.90
13835;DHT22;6988;52.614;13.500;2023-07-30T23:41:10;15.50;99.90
13835;DHT22;6988;52.614;13.500;2023-07-30T23:46:01;15.40;99.90
13835;DHT22;6988;52.614;13.500;2023-07-30T23:50:53;15.30;99.90
13835;DHT22;6988;52.614;13.500;2023-07-30T23:55:45;15.30;99.90
